Time;durP1;ratioP1;P1;durP2;ratioP2;P2;SDS_P1;SDS_P2;PMS_P1;PMS_P2;Temp;Humidity;BMP_temperature;BMP_pressure;BME280_temperature;BME280_humidity;BME280_pressure;Samples;Min_cycle;Max_cycle;Signal;HPM_P1;HPM_P2
2021/03/29 00:01:44;;;;;;;6.60;5.07;;;11.80;67.80;;;;;;4958261;28;20484;-69
2021/03/29 00:04:09;;;;;;;8.30;5.77;;;11.80;69.00;;;;;;4964922;28;20795;-71
2021/03/29 00:06:37;;;;;;;5.93;5.33;;;11.70;69.80;;;;;;4963684;28;20212;-73
2021/03/29 00:09:04;;;;;;;9.83;6.70;;;11.70;70.60;;;;;;4962346;28;20235;-70
2021/03/29 00:11:31;;;;;;;6.47;5.80;;;11.60;71.40;;;;;;4941220;28;20434;-70
2021/03/29 00:13:58;;;;;;;7.83;6.00;;;11.60;71.90;;;;;;4962239;28;20808;-71
2021/03/29 00:16:24;;;;;;;9.90;6.40;;;11.60;72.70;;;;;;4960898;28;21078;-71
2021/03/29 00:18:50;;;;;;;8.70;6.30;;;11.60;72.90;;;;;;4959130;28;20474;-71
2021/03/29 00:21:17;;;;;;;9.67;5.87;;;11.60;72.90;;;;;;4958339;28;20528;-70
2021/03/29 00:23:43;;;;;;;5.80;5.20;;;11.60;72.60;;;;;;4964180;28;21306;-71
2021/03/29 00:26:10;;;;;;;9.40;6.20;;;11.50;72.40;;;;;;4957820;28;20448;-71
2021/03/29 00:28:35;;;;;;;6.60;4.90;;;11.50;72.50;;;;;;4960485;28;20456;-71
2021/03/29 00:31:04;;;;;;;6.83;5.03;;;11.40;72.20;;;;;;4961696;28;21112;-70
2021/03/29 00:33:31;;;;;;;8.30;5.23;;;11.40;72.20;;;;;;4963191;28;20673;-72
2021/03/29 00:35:58;;;;;;;6.60;4.90;;;11.40;72.10;;;;;;4945931;28;20470;-71
2021/03/29 00:38:24;;;;;;;5.17;4.50;;;11.30;72.50;;;;;;4962472;28;20462;-72
2021/03/29 00:40:57;;;;;;;4.80;4.40;;;11.20;72.90;;;;;;4963082;28;20921;-73
2021/03/29 00:43:32;;;;;;;5.60;4.87;;;11.10;73.60;;;;;;4958937;28;20520;-72
2021/03/29 00:46:00;;;;;;;4.90;4.40;;;11.10;74.10;;;;;;4962822;28;20432;-70
2021/03/29 00:48:28;;;;;;;5.53;4.13;;;11.00;75.30;;;;;;4942769;28;20475;-70
2021/03/29 00:51:01;;;;;;;9.70;4.57;;;11.00;75.20;;;;;;4963724;28;20434;-71
2021/03/29 00:53:27;;;;;;;9.73;4.50;;;10.90;75.60;;;;;;4963474;28;20430;-72
2021/03/29 00:55:54;;;;;;;7.13;4.30;;;10.80;76.30;;;;;;4960844;28;20532;-71
2021/03/29 00:58:23;;;;;;;8.17;4.50;;;10.80;76.70;;;;;;4961545;28;20461;-71
2021/03/29 01:00:53;;;;;;;12.13;4.40;;;10.70;77.40;;;;;;4959188;28;20485;-71
2021/03/29 01:03:22;;;;;;;5.97;4.03;;;10.70;78.30;;;;;;4963615;28;20442;-71
2021/03/29 01:05:59;;;;;;;6.67;4.00;;;10.70;79.10;;;;;;4959771;28;20488;-71
2021/03/29 01:08:26;;;;;;;4.20;3.80;;;10.70;79.20;;;;;;4942692;28;20469;-70
2021/03/29 01:10:53;;;;;;;4.97;3.83;;;10.70;79.90;;;;;;4962587;28;20943;-72
2021/03/29 01:13:20;;;;;;;5.63;3.90;;;10.70;79.90;;;;;;4959945;28;20449;-71
2021/03/29 01:15:48;;;;;;;6.80;4.53;;;10.70;80.40;;;;;;4961877;28;20457;-71
2021/03/29 01:18:16;;;;;;;4.23;3.60;;;10.70;81.00;;;;;;4959591;28;20465;-70
2021/03/29 01:21:14;;;;;;;5.33;4.03;;;10.60;81.50;;;;;;4964053;28;20456;-71
2021/03/29 01:23:42;;;;;;;4.80;4.07;;;10.60;82.70;;;;;;4959619;28;20437;-71
2021/03/29 01:26:29;;;;;;;4.20;3.83;;;10.60;83.10;;;;;;4956558;28;21058;-71
2021/03/29 01:28:55;;;;;;;8.80;4.87;;;10.60;83.90;;;;;;4961820;28;20469;-71
2021/03/29 01:31:21;;;;;;;5.40;4.33;;;10.60;84.90;;;;;;4961967;28;20945;-71
2021/03/29 01:33:48;;;;;;;6.13;4.07;;;10.50;85.50;;;;;;4961047;28;20528;-71
2021/03/29 01:36:15;;;;;;;6.57;4.30;;;10.50;86.50;;;;;;4957460;28;20785;-71
2021/03/29 01:38:42;;;;;;;6.90;3.40;;;10.40;87.10;;;;;;4940312;28;20461;-71
2021/03/29 01:41:09;;;;;;;5.83;3.90;;;10.30;87.80;;;;;;4961998;28;20520;-70
2021/03/29 01:43:35;;;;;;;4.47;4.07;;;10.30;88.20;;;;;;4940388;28;20843;-73
2021/03/29 01:46:01;;;;;;;5.13;3.87;;;10.30;88.30;;;;;;4961234;28;20450;-71
2021/03/29 01:48:27;;;;;;;7.60;5.60;;;10.20;88.80;;;;;;4959232;28;20525;-71
2021/03/29 01:50:54;;;;;;;7.00;4.47;;;10.20;89.60;;;;;;4963366;28;20441;-71
2021/03/29 01:53:24;;;;;;;5.10;4.10;;;10.20;90.10;;;;;;4958235;28;20445;-71
2021/03/29 01:55:51;;;;;;;6.97;5.20;;;10.20;90.30;;;;;;4964576;28;20832;-71
2021/03/29 01:58:18;;;;;;;5.53;4.27;;;10.20;90.50;;;;;;4968866;28;20492;-71
2021/03/29 02:01:01;;;;;;;5.33;4.00;;;10.30;90.30;;;;;;4965374;28;20437;-72
2021/03/29 02:03:28;;;;;;;6.60;4.10;;;10.20;90.30;;;;;;4967178;28;20449;-70
2021/03/29 02:05:55;;;;;;;6.30;4.27;;;10.20;90.60;;;;;;4966964;28;20561;-71
2021/03/29 02:08:22;;;;;;;7.57;4.27;;;10.30;90.50;;;;;;4965112;28;21107;-70
2021/03/29 02:10:49;;;;;;;5.03;4.20;;;10.30;90.70;;;;;;4968624;28;20521;-71
2021/03/29 02:13:16;;;;;;;5.77;4.30;;;10.40;90.60;;;;;;4967235;28;20436;-70
2021/03/29 02:15:44;;;;;;;5.10;3.70;;;10.30;90.60;;;;;;4967784;28;20676;-71
2021/03/29 02:18:37;;;;;;;4.93;4.33;;;10.30;90.90;;;;;;4967471;28;20461;-72
2021/03/29 02:21:13;;;;;;;5.33;3.83;;;10.20;91.00;;;;;;4961694;28;20436;-73
2021/03/29 02:23:51;;;;;;;4.77;4.27;;;10.20;91.40;;;;;;4946130;28;20481;-72
2021/03/29 02:26:19;;;;;;;6.70;4.40;;;10.10;91.70;;;;;;4949414;28;21124;-71
2021/03/29 02:28:46;;;;;;;7.27;3.90;;;10.00;92.10;;;;;;4966502;28;20445;-71
2021/03/29 02:31:13;;;;;;;4.40;4.00;;;10.00;92.40;;;;;;4966053;28;20978;-71
2021/03/29 02:33:39;;;;;;;7.70;4.17;;;10.20;92.40;;;;;;4962473;28;20437;-72
2021/03/29 02:36:06;;;;;;;11.43;3.83;;;10.20;92.30;;;;;;4960933;28;20426;-72
2021/03/29 02:38:32;;;;;;;7.40;4.37;;;10.20;92.40;;;;;;4961464;28;21093;-71
2021/03/29 02:40:58;;;;;;;13.80;4.97;;;10.20;92.60;;;;;;4960140;28;20451;-71
2021/03/29 02:43:26;;;;;;;6.63;4.60;;;10.20;92.70;;;;;;4964325;28;20434;-69
2021/03/29 02:46:10;;;;;;;7.77;4.83;;;10.10;92.60;;;;;;4966656;28;20446;-70
2021/03/29 02:48:39;;;;;;;6.73;4.33;;;10.10;92.90;;;;;;4963504;28;20461;-71
2021/03/29 02:51:08;;;;;;;7.67;4.60;;;10.10;93.00;;;;;;4965204;28;20466;-71
2021/03/29 02:53:36;;;;;;;4.13;3.73;;;10.10;93.40;;;;;;4963691;28;20441;-71
2021/03/29 02:56:08;;;;;;;9.97;5.40;;;10.10;93.30;;;;;;4963381;28;21045;-72
2021/03/29 02:58:40;;;;;;;10.97;4.30;;;10.20;93.20;;;;;;4964719;28;20454;-72
2021/03/29 03:01:13;;;;;;;4.60;4.17;;;10.20;93.30;;;;;;4944402;28;20544;-72
2021/03/29 03:03:42;;;;;;;9.40;4.00;;;10.20;93.40;;;;;;4963328;28;20438;-73
2021/03/29 03:06:08;;;;;;;5.20;4.03;;;10.20;93.40;;;;;;4962982;28;20928;-72
2021/03/29 03:08:37;;;;;;;5.30;4.13;;;10.20;93.50;;;;;;4963636;28;20476;-73
2021/03/29 03:11:08;;;;;;;7.30;4.00;;;10.20;93.60;;;;;;4963832;28;20858;-72
2021/03/29 03:13:35;;;;;;;4.60;4.10;;;10.10;93.90;;;;;;4960094;28;20435;-72
2021/03/29 03:16:02;;;;;;;3.83;3.53;;;10.20;93.90;;;;;;4965661;28;20449;-72
2021/03/29 03:18:28;;;;;;;7.73;3.80;;;10.10;94.00;;;;;;4957214;28;20823;-72
2021/03/29 03:20:54;;;;;;;4.33;3.90;;;10.10;94.20;;;;;;4963716;28;20454;-71
2021/03/29 03:23:20;;;;;;;8.07;4.33;;;10.20;94.20;;;;;;4964378;28;20286;-70
2021/03/29 03:25:49;;;;;;;4.23;3.70;;;10.10;94.20;;;;;;4960392;28;20446;-72
2021/03/29 03:28:17;;;;;;;4.90;3.83;;;10.10;94.30;;;;;;4962242;28;20796;-70
2021/03/29 03:30:50;;;;;;;5.70;3.83;;;10.10;94.40;;;;;;4958842;28;20922;-69
2021/03/29 03:33:18;;;;;;;5.10;4.07;;;10.00;94.60;;;;;;4963941;28;20434;-71
2021/03/29 03:35:45;;;;;;;4.03;3.60;;;10.00;94.80;;;;;;4960697;28;20449;-72
2021/03/29 03:38:32;;;;;;;8.23;3.70;;;10.00;94.90;;;;;;4961252;28;20486;-70
2021/03/29 03:41:00;;;;;;;5.20;3.63;;;10.00;95.20;;;;;;4959570;28;20920;-71
2021/03/29 03:43:29;;;;;;;5.17;4.00;;;9.90;95.90;;;;;;4961337;28;20494;-71
2021/03/29 03:46:02;;;;;;;4.20;3.90;;;9.90;96.10;;;;;;4964157;28;20521;-70
2021/03/29 03:48:29;;;;;;;11.90;3.70;;;9.90;96.20;;;;;;4960358;28;20456;-71
2021/03/29 03:50:56;;;;;;;5.20;4.17;;;10.00;95.90;;;;;;4963448;28;21013;-72
2021/03/29 03:53:22;;;;;;;7.60;4.30;;;10.00;96.30;;;;;;4962805;28;20456;-72
2021/03/29 03:55:52;;;;;;;4.40;4.00;;;9.90;97.30;;;;;;4964543;28;20804;-73
2021/03/29 03:58:18;;;;;;;5.70;3.80;;;10.00;96.90;;;;;;4962449;28;20531;-72
2021/03/29 04:00:44;;;;;;;6.10;4.47;;;9.90;97.60;;;;;;4963577;28;20513;-71
2021/03/29 04:03:10;;;;;;;5.37;4.10;;;9.90;98.00;;;;;;4963805;28;20630;-72
2021/03/29 04:05:35;;;;;;;4.60;3.93;;;9.90;98.60;;;;;;4961360;28;20437;-71
2021/03/29 04:08:01;;;;;;;10.43;4.93;;;9.80;98.90;;;;;;4962181;28;20222;-71
2021/03/29 04:13:25;;;;;;;7.73;4.30;;;9.70;99.90;;;;;;4948004;28;20205;-71
2021/03/29 04:15:51;;;;;;;7.93;4.50;;;9.60;99.90;;;;;;4962750;28;20845;-70
2021/03/29 04:18:16;;;;;;;5.67;4.27;;;9.60;99.90;;;;;;4956214;28;20498;-71
2021/03/29 04:20:42;;;;;;;5.43;3.83;;;9.50;99.90;;;;;;4962701;28;20198;-70
2021/03/29 04:23:08;;;;;;;5.70;4.20;;;9.50;99.90;;;;;;4960898;28;20607;-71
2021/03/29 04:25:34;;;;;;;5.23;4.70;;;9.40;99.90;;;;;;4960134;28;20457;-71
2021/03/29 04:28:00;;;;;;;7.80;4.53;;;9.30;99.90;;;;;;4963850;28;20234;-69
2021/03/29 04:30:26;;;;;;;5.33;4.47;;;9.30;99.90;;;;;;4960749;28;21069;-70
2021/03/29 04:32:52;;;;;;;5.07;4.33;;;9.20;99.90;;;;;;4963117;28;20453;-71
2021/03/29 04:35:21;;;;;;;6.13;4.17;;;9.10;99.90;;;;;;4960652;28;20203;-71
2021/03/29 04:37:47;;;;;;;6.50;4.77;;;9.10;99.90;;;;;;4940405;28;20440;-71
2021/03/29 04:40:13;;;;;;;5.10;4.60;;;9.00;99.90;;;;;;4958825;28;20988;-71
2021/03/29 04:42:39;;;;;;;7.30;4.63;;;8.90;99.90;;;;;;4961363;28;20471;-71
2021/03/29 04:45:07;;;;;;;6.50;3.77;;;8.90;99.90;;;;;;4962682;28;20195;-70
2021/03/29 04:47:33;;;;;;;5.70;4.17;;;8.90;99.90;;;;;;4963031;28;20546;-71
2021/03/29 04:49:58;;;;;;;4.90;4.00;;;8.90;99.90;;;;;;4960832;28;20442;-72
2021/03/29 04:52:24;;;;;;;10.83;5.10;;;8.90;99.90;;;;;;4960229;28;20803;-72
2021/03/29 04:54:50;;;;;;;6.07;4.90;;;9.00;99.90;;;;;;4962287;28;20186;-72
2021/03/29 04:57:15;;;;;;;5.87;4.57;;;9.00;99.90;;;;;;4958086;28;21158;-72
2021/03/29 04:59:41;;;;;;;5.23;4.40;;;8.90;99.90;;;;;;4964224;28;20224;-71
2021/03/29 05:02:06;;;;;;;5.87;4.50;;;8.90;99.90;;;;;;4963554;28;20214;-71
2021/03/29 05:04:32;;;;;;;8.43;4.83;;;8.90;99.90;;;;;;4959516;28;20545;-71
2021/03/29 05:06:58;;;;;;;10.77;5.00;;;8.80;99.90;;;;;;4961716;28;20721;-71
2021/03/29 05:09:23;;;;;;;5.57;4.97;;;8.80;99.90;;;;;;4960731;28;20222;-71
2021/03/29 05:11:54;;;;;;;8.63;4.70;;;8.80;99.90;;;;;;4964031;28;20221;-71
2021/03/29 05:14:20;;;;;;;7.10;5.63;;;8.80;99.90;;;;;;4962221;28;20241;-72
2021/03/29 05:16:46;;;;;;;6.37;4.90;;;8.80;99.90;;;;;;4964513;28;20975;-71
2021/03/29 05:19:12;;;;;;;5.07;4.67;;;8.80;99.90;;;;;;4959149;28;20469;-72
2021/03/29 05:21:38;;;;;;;6.10;4.77;;;8.80;99.90;;;;;;4942990;28;20852;-72
2021/03/29 05:24:05;;;;;;;7.40;6.03;;;8.70;99.90;;;;;;4962631;28;20443;-73
2021/03/29 05:26:30;;;;;;;6.60;4.93;;;8.70;99.90;;;;;;4961623;28;20436;-72
2021/03/29 05:28:56;;;;;;;5.10;4.43;;;8.70;99.90;;;;;;4961712;28;20466;-69
2021/03/29 05:31:22;;;;;;;8.97;5.53;;;8.70;99.90;;;;;;4962264;28;20225;-72
2021/03/29 05:33:48;;;;;;;5.50;4.67;;;8.80;99.90;;;;;;4968555;28;20195;-71
2021/03/29 05:36:14;;;;;;;10.47;5.20;;;8.60;99.90;;;;;;4962033;28;20696;-71
2021/03/29 05:38:42;;;;;;;6.37;4.37;;;8.80;99.90;;;;;;4965020;28;20567;-71
2021/03/29 05:41:12;;;;;;;4.20;3.90;;;8.80;99.90;;;;;;4949428;28;20451;-71
2021/03/29 05:43:42;;;;;;;9.90;4.93;;;8.80;99.90;;;;;;4964657;28;20522;-70
2021/03/29 05:46:08;;;;;;;9.30;5.60;;;8.80;99.90;;;;;;4966199;28;20524;-71
2021/03/29 05:48:37;;;;;;;7.03;4.90;;;8.80;99.90;;;;;;4962383;28;20454;-71
2021/03/29 05:51:04;;;;;;;5.33;4.47;;;8.80;99.90;;;;;;4969216;28;20445;-70
2021/03/29 05:53:30;;;;;;;7.23;4.10;;;8.80;99.90;;;;;;4965311;28;20522;-70
2021/03/29 05:55:58;;;;;;;6.80;5.50;;;8.80;99.90;;;;;;4964610;28;20442;-71
2021/03/29 06:00:51;;;;;;;6.90;4.77;;;8.90;99.90;;;;;;4964543;28;20436;-71
2021/03/29 06:03:29;;;;;;;5.90;4.53;;;9.00;99.90;;;;;;4965761;28;20925;-70
2021/03/29 06:06:11;;;;;;;4.73;4.30;;;9.00;99.90;;;;;;4963010;28;20435;-70
2021/03/29 06:08:42;;;;;;;7.63;5.40;;;9.10;99.90;;;;;;4963281;28;21030;-73
2021/03/29 06:11:23;;;;;;;7.00;4.83;;;9.10;99.90;;;;;;4965797;28;20926;-69
2021/03/29 06:14:08;;;;;;;6.73;5.10;;;9.20;99.90;;;;;;4961259;28;20845;-69
2021/03/29 06:16:59;;;;;;;8.07;4.80;;;9.20;99.90;;;;;;4965318;28;20434;-71
2021/03/29 06:19:46;;;;;;;6.90;4.57;;;9.30;99.90;;;;;;4964055;28;20446;-71
2021/03/29 06:22:30;;;;;;;13.53;5.20;;;9.30;99.90;;;;;;4953353;28;20466;-71
2021/03/29 06:25:21;;;;;;;10.20;5.60;;;9.30;99.90;;;;;;4964805;28;20483;-71
2021/03/29 06:27:57;;;;;;;5.13;4.63;;;9.30;99.90;;;;;;4962631;28;20949;-72
2021/03/29 06:30:33;;;;;;;11.00;4.73;;;9.30;99.90;;;;;;4963745;28;20436;-71
2021/03/29 06:33:08;;;;;;;8.93;4.53;;;9.30;99.90;;;;;;4961801;28;20446;-73
2021/03/29 06:35:41;;;;;;;9.67;4.27;;;9.30;99.90;;;;;;4960080;28;20431;-73
2021/03/29 06:38:21;;;;;;;7.87;5.23;;;9.30;99.90;;;;;;4963870;28;21152;-71
2021/03/29 06:40:53;;;;;;;5.93;4.73;;;9.30;99.90;;;;;;4960417;28;20928;-71
2021/03/29 06:43:21;;;;;;;6.03;4.60;;;9.30;99.90;;;;;;4962912;28;20553;-70
2021/03/29 06:45:49;;;;;;;5.83;5.03;;;9.30;99.90;;;;;;4955835;28;20776;-73
2021/03/29 06:48:33;;;;;;;6.83;5.17;;;9.30;99.90;;;;;;4958612;28;20462;-74
2021/03/29 06:51:06;;;;;;;8.37;5.67;;;9.40;99.90;;;;;;4964930;28;20928;-72
2021/03/29 06:53:32;;;;;;;7.60;5.20;;;9.40;99.90;;;;;;4959976;28;20963;-73
2021/03/29 06:56:19;;;;;;;5.93;5.40;;;9.40;99.90;;;;;;4961868;28;20430;-71
2021/03/29 06:58:45;;;;;;;7.50;4.87;;;9.40;99.90;;;;;;4961537;28;20221;-72
2021/03/29 07:01:19;;;;;;;14.83;5.60;;;9.40;99.90;;;;;;4963739;28;20476;-72
2021/03/29 07:03:46;;;;;;;8.50;4.83;;;9.50;99.90;;;;;;4962663;28;20434;-71
2021/03/29 07:06:14;;;;;;;5.60;4.10;;;9.60;99.90;;;;;;4961375;28;20450;-71
2021/03/29 07:08:45;;;;;;;5.90;4.47;;;9.40;99.90;;;;;;4964315;28;20456;-72
2021/03/29 07:11:16;;;;;;;6.83;4.13;;;9.30;99.90;;;;;;4964841;28;20422;-72
2021/03/29 07:13:43;;;;;;;5.90;3.50;;;9.30;99.90;;;;;;4961394;28;20445;-72
2021/03/29 07:16:10;;;;;;;7.47;4.37;;;9.40;99.90;;;;;;4965260;28;20438;-73
2021/03/29 07:18:36;;;;;;;4.40;3.93;;;9.40;99.90;;;;;;4960105;28;20454;-72
2021/03/29 07:21:07;;;;;;;8.67;4.30;;;9.50;99.90;;;;;;4965451;28;21102;-72
2021/03/29 07:23:34;;;;;;;5.10;4.30;;;9.60;99.90;;;;;;4964281;28;20447;-72
2021/03/29 07:26:00;;;;;;;9.13;4.50;;;9.80;99.90;;;;;;4962680;28;20442;-71
2021/03/29 07:28:30;;;;;;;4.30;3.90;;;9.90;99.90;;;;;;4961366;28;20454;-72
2021/03/29 07:31:01;;;;;;;6.47;4.20;;;9.90;99.90;;;;;;4943841;28;21092;-72
2021/03/29 07:33:51;;;;;;;5.20;3.80;;;10.10;99.90;;;;;;4964051;28;20438;-71
2021/03/29 07:36:50;;;;;;;4.67;4.00;;;10.10;99.90;;;;;;4963129;28;20434;-69
2021/03/29 07:39:36;;;;;;;5.83;4.37;;;10.20;99.90;;;;;;4961279;28;20458;-72
2021/03/29 07:42:24;;;;;;;4.30;3.90;;;10.40;99.90;;;;;;4963971;28;20473;-72
2021/03/29 07:44:54;;;;;;;5.73;4.20;;;10.40;99.90;;;;;;4961861;28;20430;-71
2021/03/29 07:47:58;;;;;;;5.30;4.30;;;10.50;99.90;;;;;;4961343;28;21166;-71
2021/03/29 07:50:26;;;;;;;4.90;3.70;;;10.60;99.90;;;;;;4965551;28;20430;-71
2021/03/29 07:52:55;;;;;;;3.90;3.60;;;10.70;99.90;;;;;;4959754;28;20467;-72
2021/03/29 07:55:28;;;;;;;4.30;3.80;;;10.80;99.90;;;;;;4960695;28;20485;-72
2021/03/29 07:58:15;;;;;;;11.40;3.90;;;10.90;99.90;;;;;;4959319;28;20469;-72
2021/03/29 08:00:45;;;;;;;6.40;4.13;;;11.10;99.90;;;;;;4961821;28;20501;-72
2021/03/29 08:03:11;;;;;;;5.73;4.20;;;11.20;99.90;;;;;;4942980;28;20572;-73
2021/03/29 08:05:38;;;;;;;4.80;4.40;;;11.30;99.90;;;;;;4961013;28;21072;-73
2021/03/29 08:10:56;;;;;;;4.53;3.87;;;11.50;99.90;;;;;;4962407;28;20561;-72
2021/03/29 08:13:48;;;;;;;5.70;4.97;;;11.60;99.90;;;;;;4960487;28;20450;-74
2021/03/29 08:16:18;;;;;;;6.33;4.00;;;11.80;99.90;;;;;;4960812;28;21032;-71
2021/03/29 08:21:57;;;;;;;7.90;4.40;;;12.20;99.90;;;;;;4960937;28;20560;-74
2021/03/29 08:24:46;;;;;;;10.10;4.50;;;12.30;99.90;;;;;;4960110;28;20426;-75
2021/03/29 08:27:15;;;;;;;5.30;4.23;;;12.50;99.90;;;;;;4957807;28;20521;-74
2021/03/29 08:29:42;;;;;;;5.70;4.23;;;12.60;99.80;;;;;;4961554;28;20460;-75
2021/03/29 08:32:33;;;;;;;5.00;4.10;;;12.70;99.50;;;;;;4944806;28;20449;-74
2021/03/29 08:35:08;;;;;;;8.03;3.80;;;12.80;98.40;;;;;;4958216;28;20443;-75
2021/03/29 08:37:38;;;;;;;5.43;3.90;;;12.90;97.90;;;;;;4962737;28;20448;-75
2021/03/29 08:40:10;;;;;;;6.20;4.00;;;13.10;97.50;;;;;;4946284;28;20461;-73
2021/03/29 08:42:37;;;;;;;8.90;4.40;;;13.20;97.10;;;;;;4943240;28;20477;-71
2021/03/29 08:45:08;;;;;;;5.27;4.07;;;13.30;96.50;;;;;;4958115;28;20850;-72
2021/03/29 08:47:37;;;;;;;15.60;5.10;;;13.50;96.50;;;;;;4961206;28;21267;-68
2021/03/29 08:50:08;;;;;;;7.40;4.30;;;13.60;96.60;;;;;;4960837;28;20878;-69
2021/03/29 08:52:46;;;;;;;4.07;3.77;;;13.80;96.10;;;;;;4957080;28;20456;-70
2021/03/29 08:55:18;;;;;;;4.40;4.00;;;14.00;95.40;;;;;;4961445;28;20442;-69
2021/03/29 08:57:48;;;;;;;4.20;3.70;;;14.20;95.30;;;;;;4958823;28;20480;-68
2021/03/29 09:00:19;;;;;;;6.77;4.00;;;14.50;94.50;;;;;;4962334;28;20425;-69
2021/03/29 09:02:45;;;;;;;4.30;3.90;;;14.80;94.10;;;;;;4958273;28;20517;-68
2021/03/29 09:05:13;;;;;;;5.70;4.10;;;15.00;93.60;;;;;;4959235;28;20446;-69
2021/03/29 09:07:45;;;;;;;6.67;3.83;;;15.30;92.90;;;;;;4962812;28;20442;-69
2021/03/29 09:10:24;;;;;;;5.20;4.57;;;15.90;92.70;;;;;;4959791;28;20426;-67
2021/03/29 09:12:58;;;;;;;4.83;3.50;;;17.80;91.20;;;;;;4958419;28;20458;-68
2021/03/29 09:15:26;;;;;;;6.73;4.40;;;20.30;87.00;;;;;;4958017;28;20458;-70
2021/03/29 09:18:01;;;;;;;4.90;3.80;;;22.30;72.80;;;;;;4962254;28;20445;-71
2021/03/29 09:20:36;;;;;;;7.10;4.80;;;23.90;61.70;;;;;;4961572;28;20421;-69
2021/03/29 09:23:02;;;;;;;9.30;5.60;;;24.80;56.50;;;;;;4939932;28;20473;-69
2021/03/29 09:25:35;;;;;;;5.07;3.77;;;25.90;51.80;;;;;;4962205;28;20521;-69
2021/03/29 09:30:58;;;;;;;5.43;4.03;;;27.70;44.60;;;;;;4953282;28;20508;-68
2021/03/29 09:33:25;;;;;;;5.00;4.17;;;28.60;42.90;;;;;;4957553;28;20527;-73
2021/03/29 09:35:52;;;;;;;6.70;5.40;;;30.00;40.70;;;;;;4955707;28;20457;-73
2021/03/29 09:38:35;;;;;;;6.73;6.10;;;30.30;37.20;;;;;;4961366;28;20442;-74
2021/03/29 09:41:23;;;;;;;6.17;5.30;;;30.80;38.10;;;;;;4958147;28;20450;-74
2021/03/29 09:43:52;;;;;;;4.70;4.00;;;30.90;33.90;;;;;;4959776;28;21011;-72
2021/03/29 09:46:29;;;;;;;4.10;3.80;;;30.20;33.60;;;;;;4959386;28;20426;-72
2021/03/29 09:49:11;;;;;;;7.33;4.10;;;29.80;34.20;;;;;;4958455;28;20470;-75
2021/03/29 09:51:39;;;;;;;4.63;4.23;;;29.90;33.90;;;;;;4957008;28;20530;-73
2021/03/29 09:54:28;;;;;;;4.67;4.27;;;30.20;33.70;;;;;;4955546;28;20442;-75
2021/03/29 09:56:55;;;;;;;6.10;4.30;;;30.80;33.30;;;;;;4958779;28;23131;-75
2021/03/29 09:59:35;;;;;;;4.63;4.23;;;30.30;31.90;;;;;;4959391;28;20449;-75
2021/03/29 10:02:16;;;;;;;4.40;4.00;;;29.70;32.30;;;;;;4959213;28;20467;-75
2021/03/29 10:04:43;;;;;;;4.97;4.57;;;30.20;32.40;;;;;;4959871;28;20438;-74
2021/03/29 10:07:17;;;;;;;4.90;4.50;;;29.40;31.60;;;;;;4957529;28;20505;-74
2021/03/29 10:09:47;;;;;;;5.73;4.63;;;28.90;32.50;;;;;;4960933;28;20466;-74
2021/03/29 10:12:27;;;;;;;4.67;4.17;;;28.00;32.90;;;;;;4945113;28;21019;-74
2021/03/29 10:15:05;;;;;;;6.70;4.20;;;27.10;34.00;;;;;;4960056;28;20441;-74
2021/03/29 10:17:31;;;;;;;3.83;3.50;;;27.40;34.60;;;;;;4964702;28;20548;-75
2021/03/29 10:20:21;;;;;;;5.70;4.03;;;27.20;34.10;;;;;;4961074;28;20505;-74
2021/03/29 10:22:48;;;;;;;5.77;5.23;;;26.40;34.00;;;;;;4965349;28;20628;-75
2021/03/29 10:25:17;;;;;;;5.17;4.27;;;26.30;35.60;;;;;;4962578;28;20442;-74
2021/03/29 10:27:47;;;;;;;4.70;4.30;;;26.30;35.90;;;;;;4963360;28;21009;-73
2021/03/29 10:30:27;;;;;;;3.90;3.50;;;26.30;35.80;;;;;;4963677;28;20492;-72
2021/03/29 10:32:56;;;;;;;4.57;4.00;;;26.00;35.30;;;;;;4962541;28;20484;-74
2021/03/29 10:35:24;;;;;;;6.67;4.30;;;25.50;35.80;;;;;;4961489;28;20442;-74
2021/03/29 10:37:50;;;;;;;5.90;3.60;;;24.90;36.90;;;;;;4965122;28;20445;-73
2021/03/29 10:40:17;;;;;;;3.50;3.20;;;24.50;36.40;;;;;;4942461;28;20556;-72
2021/03/29 10:42:43;;;;;;;3.63;3.37;;;24.00;36.90;;;;;;4964210;28;20461;-72
2021/03/29 10:45:14;;;;;;;3.73;3.43;;;23.90;37.50;;;;;;4963027;28;20522;-74
2021/03/29 10:47:41;;;;;;;5.20;3.80;;;24.40;37.80;;;;;;4964660;28;20446;-73
2021/03/29 10:50:10;;;;;;;3.70;3.40;;;25.00;37.30;;;;;;4938249;28;20488;-73
2021/03/29 10:52:36;;;;;;;4.60;3.70;;;25.00;37.40;;;;;;4958111;28;20459;-74
2021/03/29 10:55:03;;;;;;;6.47;4.23;;;24.70;37.10;;;;;;4948158;28;20504;-73
2021/03/29 10:57:28;;;;;;;4.30;3.50;;;24.30;37.90;;;;;;4964979;28;20520;-73
2021/03/29 10:59:57;;;;;;;4.50;3.43;;;23.60;38.10;;;;;;4963331;28;20477;-73
2021/03/29 11:02:23;;;;;;;3.90;3.60;;;23.20;38.00;;;;;;4962279;28;20272;-74
2021/03/29 11:04:49;;;;;;;3.97;3.57;;;23.00;38.60;;;;;;4964082;28;21200;-74
2021/03/29 11:07:14;;;;;;;5.03;4.30;;;22.90;38.80;;;;;;4937447;28;20460;-74
2021/03/29 11:09:40;;;;;;;9.00;3.70;;;23.10;38.80;;;;;;4958308;28;20214;-74
2021/03/29 11:12:07;;;;;;;4.67;3.70;;;23.50;38.60;;;;;;4963314;28;20198;-74
2021/03/29 11:14:32;;;;;;;3.83;3.50;;;24.40;37.90;;;;;;4958403;28;20197;-74
2021/03/29 11:16:58;;;;;;;5.93;4.30;;;25.10;37.10;;;;;;4964562;28;20434;-76
2021/03/29 11:19:24;;;;;;;6.13;3.37;;;25.90;36.20;;;;;;4963162;28;20218;-72
2021/03/29 11:21:51;;;;;;;4.97;4.20;;;27.40;35.50;;;;;;4962187;28;20202;-74
2021/03/29 11:24:18;;;;;;;6.27;4.03;;;29.20;35.00;;;;;;4965320;28;20241;-73
2021/03/29 11:26:44;;;;;;;4.80;4.33;;;30.40;32.00;;;;;;4960803;28;20469;-74
2021/03/29 11:29:10;;;;;;;4.13;3.70;;;30.60;31.10;;;;;;4960888;28;20482;-74
2021/03/29 11:31:39;;;;;;;4.87;4.40;;;31.60;31.00;;;;;;4959890;28;20960;-74
2021/03/29 11:34:05;;;;;;;4.70;3.83;;;32.00;30.50;;;;;;4960075;28;20199;-72
2021/03/29 11:36:31;;;;;;;5.90;4.17;;;32.10;29.60;;;;;;4960648;28;20496;-74
2021/03/29 11:38:56;;;;;;;4.27;3.97;;;33.30;29.50;;;;;;4964491;28;20870;-73
2021/03/29 11:41:22;;;;;;;4.23;3.90;;;32.60;28.90;;;;;;4962504;28;20657;-75
2021/03/29 11:43:48;;;;;;;3.80;3.50;;;31.30;29.60;;;;;;4941572;28;20221;-76
2021/03/29 11:46:14;;;;;;;6.47;5.87;;;31.80;29.60;;;;;;4942299;28;20309;-74
2021/03/29 11:48:40;;;;;;;7.10;6.43;;;31.70;29.10;;;;;;4959230;28;20233;-74
2021/03/29 11:51:06;;;;;;;3.90;3.60;;;32.20;28.70;;;;;;4960159;28;20962;-74
2021/03/29 11:53:32;;;;;;;5.30;3.90;;;31.10;28.00;;;;;;4964008;28;20202;-74
2021/03/29 11:55:58;;;;;;;4.10;3.70;;;29.90;28.90;;;;;;4961646;28;20562;-75
2021/03/29 11:58:24;;;;;;;3.90;3.60;;;30.70;29.60;;;;;;4960185;28;20647;-75
2021/03/29 12:00:54;;;;;;;3.80;3.60;;;32.00;29.30;;;;;;4963990;28;20544;-73
2021/03/29 12:05:54;;;;;;;4.77;4.37;;;33.80;27.50;;;;;;4960335;28;20425;-74
2021/03/29 12:08:33;;;;;;;4.33;3.87;;;33.80;27.20;;;;;;4962678;28;21016;-72
2021/03/29 12:13:45;;;;;;;6.10;5.50;;;34.60;26.90;;;;;;4949534;28;20570;-74
2021/03/29 12:16:11;;;;;;;4.70;4.40;;;35.10;27.00;;;;;;4952460;28;20480;-73
2021/03/29 12:18:43;;;;;;;4.93;4.53;;;35.00;26.00;;;;;;4952646;28;20432;-73
2021/03/29 12:21:18;;;;;;;4.30;4.00;;;34.90;25.40;;;;;;4956610;28;21231;-73
2021/03/29 12:23:49;;;;;;;4.53;4.20;;;34.70;25.80;;;;;;4952698;28;21221;-74
2021/03/29 12:26:15;;;;;;;6.73;4.80;;;34.00;25.40;;;;;;4954038;28;20441;-72
2021/03/29 12:28:45;;;;;;;6.57;5.07;;;33.70;25.40;;;;;;4959273;28;20504;-71
2021/03/29 12:31:13;;;;;;;5.33;4.80;;;33.10;26.40;;;;;;4957863;28;21036;-74
2021/03/29 12:33:43;;;;;;;4.67;4.27;;;32.10;26.60;;;;;;4956066;28;20438;-73
2021/03/29 12:36:12;;;;;;;4.93;4.53;;;32.20;26.50;;;;;;4938918;28;20966;-78
2021/03/29 12:38:42;;;;;;;4.90;4.50;;;31.10;26.20;;;;;;4957000;28;20447;-72
2021/03/29 12:41:09;;;;;;;4.70;4.30;;;29.70;26.60;;;;;;4961863;28;20445;-74
2021/03/29 12:46:06;;;;;;;5.90;4.40;;;29.50;26.70;;;;;;4958956;28;20445;-74
2021/03/29 12:48:34;;;;;;;4.90;4.40;;;29.50;26.60;;;;;;4941704;28;21580;-75
2021/03/29 12:51:01;;;;;;;8.10;4.83;;;29.90;26.60;;;;;;4963669;28;20430;-74
2021/03/29 12:53:28;;;;;;;4.63;4.23;;;28.90;26.80;;;;;;4957210;28;20434;-75
2021/03/29 12:55:57;;;;;;;6.30;5.03;;;29.10;26.80;;;;;;4957489;28;20856;-75
2021/03/29 12:58:24;;;;;;;4.23;3.90;;;28.80;26.70;;;;;;4952456;28;20466;-74
2021/03/29 13:00:51;;;;;;;4.93;4.47;;;28.70;27.60;;;;;;4932093;28;20902;-72
2021/03/29 13:03:21;;;;;;;4.47;3.77;;;29.00;27.30;;;;;;4955261;28;20457;-72
2021/03/29 13:05:53;;;;;;;7.73;4.80;;;29.40;27.60;;;;;;4956728;28;20438;-73
2021/03/29 13:08:24;;;;;;;4.90;4.60;;;31.10;27.70;;;;;;4940568;28;20472;-73
2021/03/29 13:13:19;;;;;;;5.53;4.30;;;32.10;25.30;;;;;;4955560;28;21128;-74
2021/03/29 13:15:44;;;;;;;5.20;4.70;;;32.30;25.10;;;;;;4955312;28;20937;-73
2021/03/29 13:18:32;;;;;;;4.77;4.10;;;31.90;25.70;;;;;;4955814;28;20432;-73
2021/03/29 13:20:58;;;;;;;4.20;3.90;;;30.40;25.80;;;;;;4953858;28;20232;-74
2021/03/29 13:23:23;;;;;;;4.73;4.30;;;29.80;26.90;;;;;;4938768;28;20448;-73
2021/03/29 13:25:49;;;;;;;4.17;3.87;;;29.40;27.00;;;;;;4955993;28;20661;-73
2021/03/29 13:28:15;;;;;;;4.63;4.23;;;30.30;27.10;;;;;;4951000;28;20320;-74